createdAt,value
2022-10-30T00:01:01.605Z,18970.50
2022-10-30T00:03:29.612Z,18944.09
2022-10-30T00:05:57.643Z,18990.81
2022-10-30T00:08:26.571Z,18964.41
2022-10-30T00:10:55.931Z,18940.03
2022-10-30T00:13:23.965Z,18952.22
2022-10-30T00:15:54.629Z,18952.22
2022-10-30T00:18:22.657Z,18915.63
2022-10-30T00:20:50.914Z,18911.56
2022-10-30T00:23:20.287Z,18891.25
2022-10-30T00:25:48.374Z,18895.31
2022-10-30T00:28:17.707Z,18870.94
2022-10-30T00:30:45.688Z,18905.47
2022-10-30T00:33:13.634Z,18862.81
2022-10-30T00:35:49.732Z,18899.38
2022-10-30T00:38:17.738Z,18923.78
2022-10-30T00:40:45.728Z,18980.66
2022-10-30T00:46:19.263Z,18968.47
2022-10-30T00:48:55.606Z,19000.97
2022-10-30T00:51:24.525Z,18998.94
2022-10-30T00:53:54.387Z,18988.78
2022-10-30T00:56:24.451Z,18978.63
2022-10-30T00:58:58.307Z,18931.91
2022-10-30T01:01:30.554Z,18933.94
2022-10-30T01:04:03.431Z,18868.91
2022-10-30T01:06:36.679Z,18901.41
2022-10-30T01:09:05.940Z,18842.50
2022-10-30T01:11:34.017Z,18891.25
2022-10-30T01:14:08.154Z,18852.66
2022-10-30T01:17:03.760Z,18850.63
2022-10-30T01:19:45.199Z,18846.56
2022-10-30T01:22:33.614Z,18826.25
2022-10-30T01:25:17.500Z,18818.09
2022-10-30T01:28:00.109Z,18834.38
2022-10-30T01:30:48.587Z,18814.03
2022-10-30T01:33:36.906Z,18830.31
2022-10-30T01:36:16.092Z,18814.03
2022-10-30T01:38:50.307Z,18830.31
2022-10-30T01:41:18.479Z,18822.19
2022-10-30T01:43:51.128Z,18834.38
2022-10-30T01:46:52.309Z,18838.44
2022-10-30T01:49:46.070Z,18824.22
2022-10-30T01:52:23.968Z,18826.25
2022-10-30T01:55:03.673Z,18840.47
2022-10-30T01:57:41.666Z,18828.28
2022-10-30T02:00:14.913Z,18844.53
2022-10-30T02:02:43.644Z,18862.81
2022-10-30T02:05:22.711Z,18858.75
2022-10-30T02:07:50.713Z,18895.31
2022-10-30T02:10:18.817Z,18923.78
2022-10-30T02:12:46.987Z,18893.28
2022-10-30T02:15:15.685Z,18935.97
2022-10-30T02:17:43.831Z,18893.28
2022-10-30T02:20:18.599Z,18893.28
2022-10-30T02:22:47.461Z,18919.69
2022-10-30T02:25:16.604Z,18887.19
2022-10-30T02:27:44.594Z,18897.34
2022-10-30T02:30:13.769Z,18923.78
2022-10-30T02:32:41.776Z,18909.53
2022-10-30T02:35:10.554Z,18893.28
2022-10-30T02:37:40.198Z,18883.13
2022-10-30T02:40:09.938Z,18907.50
2022-10-30T02:42:37.934Z,18899.38
2022-10-30T02:45:06.799Z,18879.06
2022-10-30T02:47:34.818Z,18907.50
2022-10-30T02:50:02.751Z,18911.56
2022-10-30T02:52:30.743Z,18931.91
2022-10-30T02:55:00.041Z,18921.75
2022-10-30T02:57:28.054Z,18950.19
2022-10-30T02:59:56.031Z,18893.28
2022-10-30T03:02:24.150Z,18909.53
2022-10-30T03:04:52.145Z,18921.75
2022-10-30T03:07:20.175Z,18921.75
2022-10-30T03:09:48.494Z,18956.28
2022-10-30T03:12:17.853Z,18905.47
2022-10-30T03:14:45.815Z,18887.19
2022-10-30T03:17:13.858Z,18940.03
2022-10-30T03:19:41.939Z,18921.75
2022-10-30T03:22:10.000Z,18903.44
2022-10-30T03:24:38.240Z,18879.06
2022-10-30T03:27:06.512Z,18921.75
2022-10-30T03:29:35.851Z,18895.31
2022-10-30T03:32:03.792Z,18899.38
2022-10-30T03:34:31.805Z,18881.09
2022-10-30T03:36:59.992Z,18921.75
2022-10-30T03:39:27.983Z,18879.06
2022-10-30T03:41:56.036Z,18891.25
2022-10-30T03:44:24.034Z,18889.22
2022-10-30T03:46:53.379Z,18850.63
2022-10-30T03:49:21.392Z,18870.94
2022-10-30T03:51:49.355Z,18875.00
2022-10-30T03:54:18.383Z,18879.06
2022-10-30T03:56:46.562Z,18870.94
2022-10-30T03:59:14.537Z,18885.16
2022-10-30T04:01:42.671Z,18883.13
2022-10-30T04:04:12.151Z,18866.88
2022-10-30T04:06:40.078Z,18915.63
2022-10-30T04:09:08.046Z,18887.19
2022-10-30T04:11:36.001Z,18923.78
2022-10-30T04:14:03.975Z,18907.50
2022-10-30T04:16:31.963Z,18921.75
2022-10-30T04:18:59.959Z,18921.75
2022-10-30T04:21:29.278Z,18903.44
2022-10-30T04:23:57.233Z,18891.25
2022-10-30T04:26:25.210Z,18925.81
2022-10-30T04:28:53.198Z,18891.25
2022-10-30T04:31:21.127Z,18915.63
2022-10-30T04:33:49.057Z,18925.81
2022-10-30T04:36:18.050Z,18889.22
2022-10-30T04:38:47.367Z,18940.03
2022-10-30T04:41:15.293Z,18907.50
2022-10-30T04:43:43.267Z,18929.88
2022-10-30T04:46:11.268Z,18893.28
2022-10-30T04:48:39.243Z,18893.28
2022-10-30T04:51:08.240Z,18909.53
2022-10-30T04:53:36.306Z,18899.38
2022-10-30T04:56:06.714Z,18911.56
2022-10-30T04:58:34.665Z,18919.69
2022-10-30T05:01:03.648Z,18964.41
2022-10-30T05:03:31.986Z,18931.91
2022-10-30T05:06:03.445Z,18919.69
2022-10-30T05:08:31.768Z,18929.88
2022-10-30T05:11:00.295Z,18897.34
2022-10-30T05:13:29.641Z,18893.28
2022-10-30T05:15:57.582Z,18891.25
2022-10-30T05:18:25.629Z,18881.09
2022-10-30T05:20:53.612Z,18907.50
2022-10-30T05:23:21.609Z,18895.31
2022-10-30T05:25:49.549Z,18879.06
2022-10-30T05:28:17.676Z,18877.03
2022-10-30T05:30:47.011Z,18923.78
2022-10-30T05:33:17.465Z,18879.06
2022-10-30T05:35:45.607Z,18901.41
2022-10-30T05:38:14.509Z,18903.44
2022-10-30T05:40:42.497Z,18919.69
2022-10-30T05:43:10.472Z,18917.66
2022-10-30T05:45:38.502Z,18911.56
2022-10-30T05:48:08.633Z,18940.03
2022-10-30T05:50:36.939Z,18923.78
2022-10-30T05:53:06.616Z,18942.06
2022-10-30T05:55:34.873Z,18921.75
2022-10-30T05:58:06.457Z,18948.16
2022-10-30T06:00:36.917Z,18919.69
2022-10-30T06:03:08.582Z,18933.94
2022-10-30T06:05:38.239Z,18962.38
2022-10-30T06:08:08.256Z,18944.09
2022-10-30T06:10:36.823Z,18917.66
2022-10-30T06:13:07.543Z,18990.81
2022-10-30T06:15:35.845Z,19013.16
2022-10-30T06:18:03.985Z,18952.22
2022-10-30T06:20:33.301Z,18927.84
2022-10-30T06:23:03.831Z,18935.97
2022-10-30T06:25:40.763Z,18964.41
2022-10-30T06:28:11.237Z,18952.22
2022-10-30T06:30:39.291Z,18933.94
2022-10-30T06:33:08.123Z,18895.31
2022-10-30T06:35:37.443Z,18948.16
2022-10-30T06:38:05.585Z,18895.31
2022-10-30T06:40:34.673Z,18875.00
2022-10-30T06:43:02.977Z,18903.44
2022-10-30T06:45:31.192Z,18868.91
2022-10-30T06:48:01.907Z,18915.63
2022-10-30T06:50:30.287Z,18923.78
2022-10-30T06:52:59.612Z,18952.22
2022-10-30T06:55:27.614Z,19007.06
2022-10-30T06:57:57.351Z,19039.59
2022-10-30T07:00:25.918Z,19039.59
2022-10-30T07:03:02.265Z,19076.16
2022-10-30T07:05:30.859Z,19078.19
2022-10-30T07:08:00.465Z,19078.19
2022-10-30T07:10:28.466Z,19135.09
2022-10-30T07:12:58.830Z,19122.91
2022-10-30T07:15:27.911Z,19137.13
2022-10-30T07:17:57.633Z,19074.13
2022-10-30T07:20:27.670Z,19068.03
2022-10-30T07:22:55.852Z,19088.34
2022-10-30T07:25:25.259Z,19066.00
2022-10-30T07:27:55.562Z,19082.25
2022-10-30T07:33:02.445Z,19092.41
2022-10-30T07:35:32.363Z,19090.38
2022-10-30T07:38:04.476Z,19066.00
2022-10-30T07:40:34.478Z,19112.75
2022-10-30T07:43:04.606Z,19082.25
2022-10-30T07:45:33.305Z,19092.41
2022-10-30T07:48:01.872Z,19068.03
2022-10-30T07:50:30.360Z,19135.09
2022-10-30T07:52:58.468Z,19145.25
2022-10-30T07:55:26.590Z,19149.31
2022-10-30T07:57:56.254Z,19169.63
2022-10-30T08:00:24.774Z,19145.25
2022-10-30T08:02:56.948Z,19147.28
2022-10-30T08:05:28.849Z,19151.34
2022-10-30T08:07:59.178Z,19167.59
2022-10-30T08:10:27.927Z,19118.84
2022-10-30T08:12:57.337Z,19137.13
2022-10-30T08:15:25.585Z,19167.59
2022-10-30T08:17:54.109Z,19149.31
2022-10-30T08:20:24.560Z,19175.72
2022-10-30T08:22:54.326Z,19153.38
2022-10-30T08:25:25.814Z,19114.78
2022-10-30T08:27:59.143Z,19151.34
2022-10-30T08:30:30.223Z,19110.72
2022-10-30T08:33:00.029Z,19088.34
2022-10-30T08:35:29.059Z,19114.78
2022-10-30T08:37:57.557Z,19102.56
2022-10-30T08:40:27.485Z,19129.00
2022-10-30T08:42:58.794Z,19106.66
2022-10-30T08:45:30.864Z,19141.19
2022-10-30T08:48:01.192Z,19185.88
2022-10-30T08:50:30.138Z,19218.41
2022-10-30T08:53:01.971Z,19299.69
2022-10-30T08:55:31.013Z,19368.78
2022-10-30T08:58:00.735Z,19401.28
2022-10-30T09:00:29.409Z,19427.72
2022-10-30T09:02:58.205Z,19462.25
2022-10-30T09:05:26.557Z,19539.47
2022-10-30T09:07:58.221Z,19588.25
2022-10-30T09:10:26.474Z,19594.34
2022-10-30T09:12:57.723Z,19592.31
2022-10-30T09:15:28.328Z,19675.63
2022-10-30T09:18:01.257Z,19738.66
2022-10-30T09:20:31.247Z,19700.03
2022-10-30T09:22:59.438Z,19716.28
2022-10-30T09:25:28.043Z,19795.53
2022-10-30T09:27:56.078Z,19801.66
2022-10-30T09:30:26.108Z,19838.22
2022-10-30T09:32:58.601Z,19878.88
2022-10-30T09:35:27.495Z,19901.22
2022-10-30T09:37:56.715Z,19947.97
2022-10-30T09:40:42.804Z,19990.66
2022-10-30T09:43:28.820Z,19986.59
2022-10-30T09:46:21.947Z,20051.63
2022-10-30T09:49:11.428Z,20076.03
2022-10-30T09:52:06.054Z,20124.81
2022-10-30T09:54:56.614Z,20134.97
2022-10-30T09:57:40.645Z,20171.56
2022-10-30T10:00:13.761Z,20171.56
2022-10-30T10:02:59.979Z,20214.22
2022-10-30T10:05:39.449Z,20220.34
2022-10-30T10:08:16.405Z,20250.81
2022-10-30T10:10:48.905Z,20269.13
2022-10-30T10:13:31.956Z,20313.84
2022-10-30T10:16:12.967Z,20315.88
2022-10-30T10:18:48.071Z,20391.06
2022-10-30T10:21:26.032Z,20460.19
2022-10-30T10:23:57.072Z,20429.69
2022-10-30T10:26:32.450Z,20460.19
2022-10-30T10:29:28.897Z,20429.69
2022-10-30T10:32:18.669Z,20472.38
2022-10-30T10:35:07.757Z,20504.91
2022-10-30T10:37:45.315Z,20513.03
2022-10-30T10:40:38.526Z,20604.50
2022-10-30T10:43:25.617Z,20533.34
2022-10-30T10:46:26.275Z,20521.16
2022-10-30T10:49:14.393Z,20567.91
2022-10-30T10:51:50.460Z,20610.59
2022-10-30T10:54:25.964Z,20671.59
2022-10-30T10:56:54.421Z,20689.88
2022-10-30T10:59:33.219Z,20677.69
2022-10-30T11:02:34.309Z,20661.44
2022-10-30T11:05:13.225Z,20722.41
2022-10-30T11:07:49.390Z,20712.25
2022-10-30T11:10:21.103Z,20675.66
2022-10-30T11:12:49.279Z,20679.72
2022-10-30T11:15:32.375Z,20702.09
2022-10-30T11:18:03.559Z,20728.50
2022-10-30T11:20:43.493Z,20767.13
2022-10-30T11:23:40.479Z,20740.69
2022-10-30T11:26:34.926Z,20769.16
2022-10-30T11:29:13.497Z,20834.22
2022-10-30T11:31:43.953Z,20789.50
2022-10-30T11:34:26.410Z,20846.41
2022-10-30T11:36:55.662Z,20866.75
2022-10-30T11:39:27.275Z,20862.69
2022-10-30T11:42:04.694Z,20846.41
2022-10-30T11:44:38.756Z,20891.13
2022-10-30T11:47:09.816Z,20897.25
2022-10-30T11:49:47.390Z,20931.78
2022-10-30T11:52:18.946Z,20944.00
2022-10-30T11:54:52.926Z,20937.91
2022-10-30T11:57:30.427Z,20956.19
2022-10-30T12:00:04.629Z,20964.31
2022-10-30T12:02:43.870Z,20994.81
2022-10-30T12:05:34.216Z,21025.31
2022-10-30T12:08:21.899Z,21027.34
2022-10-30T12:11:01.551Z,21039.53
2022-10-30T12:13:38.690Z,20982.63
2022-10-30T12:16:20.050Z,21017.19
2022-10-30T12:19:03.597Z,20986.69
2022-10-30T12:21:39.779Z,21004.97
2022-10-30T12:24:18.939Z,21047.69
2022-10-30T12:26:53.636Z,21094.44
2022-10-30T12:29:41.704Z,21216.41
2022-10-30T12:32:20.961Z,21470.56
2022-10-30T12:35:00.501Z,21551.91
2022-10-30T12:37:34.901Z,21588.50
2022-10-30T12:40:13.362Z,21501.06
2022-10-30T12:42:55.220Z,21433.97
2022-10-30T12:45:32.369Z,21356.69
2022-10-30T12:48:09.662Z,21309.94
2022-10-30T12:50:45.606Z,21230.66
2022-10-30T12:53:30.040Z,21220.47
2022-10-30T12:56:07.279Z,21161.53
2022-10-30T12:58:47.874Z,21179.81
2022-10-30T13:01:28.833Z,21159.50
2022-10-30T13:04:10.396Z,21116.78
2022-10-30T13:06:47.248Z,21112.72
2022-10-30T13:09:24.802Z,21126.97
2022-10-30T13:11:59.694Z,21108.66
2022-10-30T13:14:38.720Z,21088.34
2022-10-30T13:17:12.584Z,21043.59
2022-10-30T13:19:42.661Z,21090.38
2022-10-30T13:22:20.991Z,21088.34
2022-10-30T13:25:03.738Z,21082.25
2022-10-30T13:27:46.479Z,21070.03
2022-10-30T13:30:20.321Z,21074.09
2022-10-30T13:33:08.611Z,21114.75
2022-10-30T13:35:45.896Z,21037.50
2022-10-30T13:38:44.198Z,21049.72
2022-10-30T13:41:27.962Z,21023.28
2022-10-30T13:44:12.833Z,21009.03
2022-10-30T13:47:06.017Z,21015.16
2022-10-30T13:50:03.465Z,20974.50
2022-10-30T13:52:36.516Z,20968.38
2022-10-30T13:55:15.405Z,20962.28
2022-10-30T13:57:51.025Z,20982.63
2022-10-30T14:00:22.394Z,20984.66
2022-10-30T14:03:16.366Z,21013.13
2022-10-30T14:05:52.255Z,20974.50
2022-10-30T14:08:33.959Z,20915.53
2022-10-30T14:11:05.621Z,20929.75
2022-10-30T14:13:50.262Z,20854.53
2022-10-30T14:16:43.114Z,20883.00
2022-10-30T14:19:13.307Z,20846.41
2022-10-30T14:21:44.764Z,20830.16
2022-10-30T14:24:17.965Z,20854.53
2022-10-30T14:26:55.794Z,20779.31
2022-10-30T14:29:49.649Z,20773.22
2022-10-30T14:32:49.702Z,20769.16
2022-10-30T14:35:41.321Z,20738.66
2022-10-30T14:38:36.476Z,20704.13
2022-10-30T14:41:28.621Z,20700.03
2022-10-30T14:44:44.159Z,20663.47
2022-10-30T14:47:55.521Z,20679.72
2022-10-30T14:51:02.193Z,20614.66
2022-10-30T14:53:50.237Z,20645.16
2022-10-30T14:56:36.364Z,20592.31
2022-10-30T14:59:23.229Z,20563.84
2022-10-30T15:02:21.744Z,20574.00
2022-10-30T15:05:28.729Z,20480.50
2022-10-30T15:08:20.892Z,20496.78
2022-10-30T15:11:11.793Z,20468.31
2022-10-30T15:13:51.398Z,20466.28
2022-10-30T15:16:22.807Z,20466.28
2022-10-30T15:19:00.120Z,20433.75
2022-10-30T15:21:33.292Z,20372.78
2022-10-30T15:24:03.335Z,20389.03
2022-10-30T15:26:37.372Z,20342.28
2022-10-30T15:29:07.836Z,20324.00
2022-10-30T15:31:35.754Z,20305.69
2022-10-30T15:34:03.706Z,20281.31
2022-10-30T15:36:43.011Z,20291.47
2022-10-30T15:39:15.826Z,20240.66
2022-10-30T15:41:48.808Z,20232.53
2022-10-30T15:44:22.238Z,20222.38
2022-10-30T15:46:52.989Z,20187.81
2022-10-30T15:49:31.296Z,20157.31
2022-10-30T15:52:01.073Z,20137.00
2022-10-30T15:54:32.608Z,20141.06
2022-10-30T15:57:42.828Z,20126.84
2022-10-30T15:59:55.620Z,20141.06
2022-10-30T16:02:26.774Z,20096.34
2022-10-30T16:04:55.092Z,20069.94
2022-10-30T16:07:26.138Z,20055.69
2022-10-30T16:09:57.997Z,20027.25
2022-10-30T16:12:28.897Z,20078.06
2022-10-30T16:14:58.833Z,20013.00
2022-10-30T16:17:28.030Z,19994.72
2022-10-30T16:20:03.000Z,19986.59
2022-10-30T16:22:38.993Z,19956.09
2022-10-30T16:25:12.809Z,19964.25
2022-10-30T16:27:46.216Z,19915.47
2022-10-30T16:30:17.204Z,19927.66
2022-10-30T16:32:52.223Z,19917.50
2022-10-30T16:35:24.250Z,19895.13
2022-10-30T16:37:53.278Z,19889.03
2022-10-30T16:40:28.285Z,19899.19
2022-10-30T16:42:59.383Z,19939.84
2022-10-30T16:45:50.974Z,19897.16
2022-10-30T16:48:27.932Z,19868.72
2022-10-30T16:51:04.665Z,19854.50
2022-10-30T16:53:33.421Z,19866.69
2022-10-30T16:56:03.465Z,19846.34
2022-10-30T16:58:32.854Z,19850.41
2022-10-30T17:01:07.295Z,19874.81
2022-10-30T17:03:41.005Z,19801.66
2022-10-30T17:06:29.384Z,19777.25
2022-10-30T17:09:01.127Z,19813.84
2022-10-30T17:11:41.892Z,19775.22
2022-10-30T17:14:22.004Z,19805.72
2022-10-30T17:16:56.178Z,19793.50
2022-10-30T17:19:48.311Z,19771.16
2022-10-30T17:22:21.406Z,19732.53
2022-10-30T17:24:49.550Z,19712.22
2022-10-30T17:27:47.728Z,19695.97
2022-10-30T17:30:40.371Z,19665.47
2022-10-30T17:33:28.382Z,19685.81
2022-10-30T17:35:56.374Z,19645.16
2022-10-30T17:38:24.409Z,19620.78
2022-10-30T17:40:52.486Z,19602.47
2022-10-30T17:43:26.375Z,19618.75
2022-10-30T17:45:54.280Z,19602.47
2022-10-30T17:48:26.560Z,19594.34
2022-10-30T17:50:54.492Z,19547.59
2022-10-30T17:53:25.616Z,19561.84
2022-10-30T17:56:02.288Z,19537.44
2022-10-30T17:58:31.887Z,19557.78
2022-10-30T18:01:00.559Z,19515.09
2022-10-30T18:03:28.906Z,19515.09
2022-10-30T18:05:58.604Z,19519.16
2022-10-30T18:08:26.522Z,19500.88
2022-10-30T18:10:54.693Z,19488.69
2022-10-30T18:13:22.685Z,19486.66
2022-10-30T18:15:58.130Z,19525.25
2022-10-30T18:18:26.123Z,19456.16
2022-10-30T18:20:54.066Z,19521.19
2022-10-30T18:23:51.414Z,19484.59
2022-10-30T18:26:17.317Z,19456.16
2022-10-30T18:28:45.843Z,19441.94
2022-10-30T18:31:18.234Z,19421.63
2022-10-30T18:33:46.441Z,19450.06
2022-10-30T18:36:16.177Z,19452.09
2022-10-30T18:38:44.793Z,19399.25
2022-10-30T18:41:17.738Z,19407.38
2022-10-30T18:43:47.137Z,19383.00
2022-10-30T18:46:17.478Z,19385.03
2022-10-30T18:48:45.979Z,19407.38
2022-10-30T18:51:19.729Z,19378.94
2022-10-30T18:53:52.386Z,19383.00
2022-10-30T18:56:22.445Z,19356.59
2022-10-30T18:58:54.844Z,19336.25
2022-10-30T19:01:28.144Z,19320.00
2022-10-30T19:03:56.254Z,19330.16
2022-10-30T19:06:25.505Z,19317.97
2022-10-30T19:08:53.438Z,19283.44
2022-10-30T19:11:25.050Z,19309.84
2022-10-30T19:13:54.600Z,19277.34
2022-10-30T19:16:25.594Z,19261.06
2022-10-30T19:18:55.159Z,19287.50
2022-10-30T19:21:26.011Z,19232.63
2022-10-30T19:23:55.496Z,19257.00
2022-10-30T19:26:23.880Z,19244.81
2022-10-30T19:28:51.777Z,19230.59
2022-10-30T19:31:21.174Z,19222.47
2022-10-30T19:33:53.153Z,19244.81
2022-10-30T19:36:33.571Z,19210.28
2022-10-30T19:39:07.447Z,19204.19
2022-10-30T19:41:36.990Z,19230.59
2022-10-30T19:44:05.728Z,19179.78
2022-10-30T19:46:33.792Z,19224.50
2022-10-30T19:49:13.566Z,19234.66
2022-10-30T19:51:42.914Z,19198.09
2022-10-30T19:54:10.849Z,19198.09
2022-10-30T19:56:38.889Z,19204.19
2022-10-30T19:59:10.660Z,19192.00
2022-10-30T20:01:38.776Z,19212.31
2022-10-30T20:04:06.843Z,19175.72
2022-10-30T20:06:34.838Z,19171.66
2022-10-30T20:09:05.406Z,19210.28
2022-10-30T20:11:33.409Z,19179.78
2022-10-30T20:14:01.372Z,19147.28
2022-10-30T20:16:29.398Z,19159.47
2022-10-30T20:18:57.387Z,19171.66
2022-10-30T20:21:28.227Z,19161.50
2022-10-30T20:23:56.245Z,19145.25
2022-10-30T20:26:30.134Z,19143.22
2022-10-30T20:29:00.403Z,19135.09
2022-10-30T20:31:28.500Z,19149.31
2022-10-30T20:33:56.603Z,19124.94
2022-10-30T20:36:24.560Z,19157.44
2022-10-30T20:38:52.483Z,19133.06
2022-10-30T20:41:24.127Z,19122.91
2022-10-30T20:43:53.471Z,19133.06
2022-10-30T20:46:22.209Z,19175.72
2022-10-30T20:48:50.498Z,19135.09
2022-10-30T20:51:18.502Z,19147.28
2022-10-30T20:53:46.627Z,19126.97
2022-10-30T20:56:14.644Z,19126.97
2022-10-30T20:58:43.288Z,19135.09
2022-10-30T21:01:13.979Z,19098.50
2022-10-30T21:03:42.075Z,19122.91
2022-10-30T21:06:10.134Z,19122.91
2022-10-30T21:08:38.572Z,19141.19
2022-10-30T21:11:08.199Z,19114.78
2022-10-30T21:13:37.454Z,19137.13
2022-10-30T21:16:09.160Z,19126.97
2022-10-30T21:18:38.542Z,19106.66
2022-10-30T21:21:11.422Z,19141.19
2022-10-30T21:23:39.565Z,19139.16
2022-10-30T21:26:10.852Z,19120.88
2022-10-30T21:28:39.329Z,19137.13
2022-10-30T21:31:11.459Z,19102.56
2022-10-30T21:33:41.282Z,19118.84
2022-10-30T21:36:14.336Z,19145.25
2022-10-30T21:38:44.368Z,19131.03
2022-10-30T21:41:14.131Z,19088.34
2022-10-30T21:43:42.486Z,19153.38
2022-10-30T21:46:13.367Z,19124.94
2022-10-30T21:48:42.724Z,19102.56
2022-10-30T21:51:13.473Z,19159.47
2022-10-30T21:53:42.374Z,19104.59
2022-10-30T21:56:13.566Z,19094.44
2022-10-30T21:58:42.129Z,19108.69
2022-10-30T22:01:16.595Z,19129.00
2022-10-30T22:03:46.659Z,19066.00
2022-10-30T22:06:17.933Z,19124.94
2022-10-30T22:08:47.358Z,19088.34
2022-10-30T22:11:16.173Z,19110.72
2022-10-30T22:13:44.371Z,19092.41
2022-10-30T22:16:15.525Z,19118.84
2022-10-30T22:18:44.924Z,19098.50
2022-10-30T22:21:14.362Z,19114.78
2022-10-30T22:23:43.590Z,19090.38
2022-10-30T22:26:15.442Z,19118.84
2022-10-30T22:28:44.593Z,19120.88
2022-10-30T22:31:15.893Z,19090.38
2022-10-30T22:33:45.913Z,19110.72
2022-10-30T22:36:17.702Z,19153.38
2022-10-30T22:38:46.838Z,19147.28
2022-10-30T22:41:18.455Z,19133.06
2022-10-30T22:43:49.797Z,19126.97
2022-10-30T22:46:19.857Z,19104.59
2022-10-30T22:48:49.314Z,19126.97
2022-10-30T22:51:20.277Z,19171.66
2022-10-30T22:53:57.128Z,19161.50
2022-10-30T22:56:27.111Z,19135.09
2022-10-30T22:58:56.344Z,19159.47
2022-10-30T23:01:26.955Z,19151.34
2022-10-30T23:04:00.037Z,19171.66
2022-10-30T23:06:30.965Z,19143.22
2022-10-30T23:09:01.581Z,19143.22
2022-10-30T23:11:30.929Z,19157.44
2022-10-30T23:13:59.091Z,19139.16
2022-10-30T23:16:28.068Z,19129.00
2022-10-30T23:18:59.458Z,19126.97
2022-10-30T23:21:30.919Z,19173.69
2022-10-30T23:24:00.029Z,19131.03
2022-10-30T23:26:31.825Z,19112.75
2022-10-30T23:29:01.348Z,19139.16
2022-10-30T23:31:33.379Z,19104.59
2022-10-30T23:34:07.121Z,19163.53
2022-10-30T23:36:35.251Z,19167.59
2022-10-30T23:39:06.115Z,19118.84
2022-10-30T23:41:34.926Z,19122.91
2022-10-30T23:44:06.608Z,19165.56
2022-10-30T23:46:36.395Z,19143.22
2022-10-30T23:49:06.445Z,19122.91
2022-10-30T23:51:34.639Z,19171.66
2022-10-30T23:54:02.868Z,19157.44
2022-10-30T23:56:31.188Z,19149.31
2022-10-30T23:58:59.571Z,19137.13
